Main page
METAR-TAF:

METAR-TAF

Airports :

Bournemouth Airport

Bournemouth, England

latitude: 50-47N, longitude: 001-50W, elevation: 11 m

Current weather observation

The report was made 33 minutes ago, at 13:20 UTC
Wind 15 kt from the Southwest
Temperature 21°C
Humidity 53%
Pressure 1014 hPa
Visibility 10 km or more
Few clouds at a height of 4000 ft

METAR: EGHH 211320Z 22015KT 9999 FEW040 21/11 Q1014

Time: 14:53 (13:53 UTC)

Forecast

The report was made 2 hours and 54 minutes ago, at 10:59 UTC
Forecast valid from 21 at 12 UTC to 21 at 21 UTC
Wind 10 kt from the South/Southwest
Visibility 10 km or more
Few clouds at a height of 2500 ft
Probability 30% :
Temporary
from 21 at 19 UTC to 21 at 21 UTC
Visibility: 6000 m
Broken clouds at a height of 1000 ft
rain, light rain, drizzle,

TAF: EGHH 211059Z 2112/2121 20010KT 9999 FEW025 PROB30 TEMPO 2119/2121 6000 RA -RADZ BKN010

Weather observations and forecasts of more than 4000 airports (METAR and TAF reports).

The available stations are represented by yellow and red dots on the map.

Hover mouse over dot to see the name of the station.

Then click to see weather observations and forecasts.

To change the map : click on the green buttons with a black cross to zoom in, on the green button with a dash to zoom out, or on the green arrows for adjacent maps.


METAR-TAF: